sensor_id;sensor_type;location;lat;lon;timestamp;temperature;humidity
52743;DHT22;55583;53.012;6.556;2023-05-10T00:02:09;12.70;99.90
52743;DHT22;55583;53.012;6.556;2023-05-10T00:04:34;12.70;99.90
52743;DHT22;55583;53.012;6.556;2023-05-10T00:07:00;12.70;99.90
52743;DHT22;55583;53.012;6.556;2023-05-10T00:09:26;12.70;99.90
52743;DHT22;55583;53.012;6.556;2023-05-10T00:11:51;12.60;99.90
52743;DHT22;55583;53.012;6.556;2023-05-10T00:14:17;12.60;99.90
52743;DHT22;55583;53.012;6.556;2023-05-10T00:16:42;12.60;99.90
52743;DHT22;55583;53.012;6.556;2023-05-10T00:19:08;12.60;99.90
52743;DHT22;55583;53.012;6.556;2023-05-10T00:21:34;12.80;99.90
52743;DHT22;55583;53.012;6.556;2023-05-10T00:24:00;12.70;99.90
52743;DHT22;55583;53.012;6.556;2023-05-10T00:26:25;12.60;99.90
52743;DHT22;55583;53.012;6.556;2023-05-10T00:28:51;12.70;99.90
52743;DHT22;55583;53.012;6.556;2023-05-10T00:31:17;12.70;99.90
52743;DHT22;55583;53.012;6.556;2023-05-10T00:33:42;12.70;99.90
52743;DHT22;55583;53.012;6.556;2023-05-10T00:36:08;12.70;99.90
52743;DHT22;55583;53.012;6.556;2023-05-10T00:38:34;12.70;99.90
52743;DHT22;55583;53.012;6.556;2023-05-10T00:40:59;12.80;99.90
52743;DHT22;55583;53.012;6.556;2023-05-10T00:43:25;12.70;99.90
52743;DHT22;55583;53.012;6.556;2023-05-10T00:45:51;12.70;99.90
52743;DHT22;55583;53.012;6.556;2023-05-10T00:48:17;12.90;99.90
52743;DHT22;55583;53.012;6.556;2023-05-10T00:50:43;12.70;99.90
52743;DHT22;55583;53.012;6.556;2023-05-10T00:53:09;12.70;99.90
52743;DHT22;55583;53.012;6.556;2023-05-10T00:55:36;12.70;99.90
52743;DHT22;55583;53.012;6.556;2023-05-10T00:58:01;12.60;99.90
52743;DHT22;55583;53.012;6.556;2023-05-10T01:00:27;12.70;99.90
52743;DHT22;55583;53.012;6.556;2023-05-10T01:02:53;12.60;99.90
52743;DHT22;55583;53.012;6.556;2023-05-10T01:05:19;12.70;99.90
52743;DHT22;55583;53.012;6.556;2023-05-10T01:07:46;12.80;99.90
52743;DHT22;55583;53.012;6.556;2023-05-10T01:10:11;12.60;99.90
52743;DHT22;55583;53.012;6.556;2023-05-10T01:12:39;12.60;99.90
52743;DHT22;55583;53.012;6.556;2023-05-10T01:15:07;12.60;99.90
52743;DHT22;55583;53.012;6.556;2023-05-10T01:17:34;12.50;99.90
52743;DHT22;55583;53.012;6.556;2023-05-10T01:20:01;12.50;99.90
52743;DHT22;55583;53.012;6.556;2023-05-10T01:31:22;12.40;99.90
52743;DHT22;55583;53.012;6.556;2023-05-10T01:36:28;12.50;99.90
52743;DHT22;55583;53.012;6.556;2023-05-10T01:39:23;12.40;99.90
52743;DHT22;55583;53.012;6.556;2023-05-10T01:42:08;12.40;99.90
52743;DHT22;55583;53.012;6.556;2023-05-10T01:44:42;12.30;99.90
52743;DHT22;55583;53.012;6.556;2023-05-10T01:47:22;12.40;99.90
52743;DHT22;55583;53.012;6.556;2023-05-10T01:49:51;12.40;99.90
52743;DHT22;55583;53.012;6.556;2023-05-10T01:52:27;12.40;99.90
52743;DHT22;55583;53.012;6.556;2023-05-10T01:54:59;12.40;99.90
52743;DHT22;55583;53.012;6.556;2023-05-10T01:57:27;12.40;99.90
52743;DHT22;55583;53.012;6.556;2023-05-10T01:59:58;12.40;99.90
52743;DHT22;55583;53.012;6.556;2023-05-10T02:02:24;12.40;99.90
52743;DHT22;55583;53.012;6.556;2023-05-10T02:04:53;12.30;99.90
52743;DHT22;55583;53.012;6.556;2023-05-10T02:07:21;12.30;99.90
52743;DHT22;55583;53.012;6.556;2023-05-10T02:09:48;12.30;99.90
52743;DHT22;55583;53.012;6.556;2023-05-10T02:12:15;12.30;99.90
52743;DHT22;55583;53.012;6.556;2023-05-10T02:14:41;12.30;99.90
52743;DHT22;55583;53.012;6.556;2023-05-10T02:17:09;12.50;99.90
52743;DHT22;55583;53.012;6.556;2023-05-10T02:19:37;12.30;99.90
52743;DHT22;55583;53.012;6.556;2023-05-10T02:22:04;12.40;99.90
52743;DHT22;55583;53.012;6.556;2023-05-10T02:24:32;12.40;99.90
52743;DHT22;55583;53.012;6.556;2023-05-10T02:26:59;12.30;99.90
52743;DHT22;55583;53.012;6.556;2023-05-10T02:29:27;12.40;99.90
52743;DHT22;55583;53.012;6.556;2023-05-10T02:31:54;12.40;99.90
52743;DHT22;55583;53.012;6.556;2023-05-10T02:34:26;12.40;99.90
52743;DHT22;55583;53.012;6.556;2023-05-10T02:36:53;12.40;99.90
52743;DHT22;55583;53.012;6.556;2023-05-10T02:39:19;12.50;99.90
52743;DHT22;55583;53.012;6.556;2023-05-10T02:41:46;12.40;99.90
52743;DHT22;55583;53.012;6.556;2023-05-10T02:44:15;12.40;99.90
52743;DHT22;55583;53.012;6.556;2023-05-10T02:46:42;12.40;99.90
52743;DHT22;55583;53.012;6.556;2023-05-10T02:49:08;12.40;99.90
52743;DHT22;55583;53.012;6.556;2023-05-10T02:51:36;12.30;99.90
52743;DHT22;55583;53.012;6.556;2023-05-10T02:54:09;12.30;99.90
52743;DHT22;55583;53.012;6.556;2023-05-10T02:56:36;12.30;99.90
52743;DHT22;55583;53.012;6.556;2023-05-10T02:59:06;12.40;99.90
52743;DHT22;55583;53.012;6.556;2023-05-10T03:01:32;12.30;99.90
52743;DHT22;55583;53.012;6.556;2023-05-10T03:03:57;12.30;99.90
52743;DHT22;55583;53.012;6.556;2023-05-10T03:06:23;12.30;99.90
52743;DHT22;55583;53.012;6.556;2023-05-10T03:08:49;12.40;99.90
52743;DHT22;55583;53.012;6.556;2023-05-10T03:11:28;12.50;99.90
52743;DHT22;55583;53.012;6.556;2023-05-10T03:14:10;12.40;99.90
52743;DHT22;55583;53.012;6.556;2023-05-10T03:16:52;12.30;99.90
52743;DHT22;55583;53.012;6.556;2023-05-10T03:21:50;12.30;99.90
52743;DHT22;55583;53.012;6.556;2023-05-10T03:24:18;12.40;99.90
52743;DHT22;55583;53.012;6.556;2023-05-10T03:26:45;12.30;99.90
52743;DHT22;55583;53.012;6.556;2023-05-10T03:29:12;12.30;99.90
52743;DHT22;55583;53.012;6.556;2023-05-10T03:31:39;12.30;99.90
52743;DHT22;55583;53.012;6.556;2023-05-10T03:34:05;12.30;99.90
52743;DHT22;55583;53.012;6.556;2023-05-10T03:36:31;12.30;99.90
52743;DHT22;55583;53.012;6.556;2023-05-10T03:38:57;12.30;99.90
52743;DHT22;55583;53.012;6.556;2023-05-10T03:41:22;12.30;99.90
52743;DHT22;55583;53.012;6.556;2023-05-10T03:43:48;12.30;99.90
52743;DHT22;55583;53.012;6.556;2023-05-10T03:46:14;12.30;99.90
52743;DHT22;55583;53.012;6.556;2023-05-10T03:48:40;12.30;99.90
52743;DHT22;55583;53.012;6.556;2023-05-10T03:51:05;12.30;99.90
52743;DHT22;55583;53.012;6.556;2023-05-10T03:53:31;12.30;99.90
52743;DHT22;55583;53.012;6.556;2023-05-10T03:55:56;12.30;99.90
52743;DHT22;55583;53.012;6.556;2023-05-10T03:58:22;12.30;99.90
52743;DHT22;55583;53.012;6.556;2023-05-10T04:00:48;12.30;99.90
52743;DHT22;55583;53.012;6.556;2023-05-10T04:03:13;12.30;99.90
52743;DHT22;55583;53.012;6.556;2023-05-10T04:05:39;12.30;99.90
52743;DHT22;55583;53.012;6.556;2023-05-10T04:08:05;12.30;99.90
52743;DHT22;55583;53.012;6.556;2023-05-10T04:10:31;12.30;99.90
52743;DHT22;55583;53.012;6.556;2023-05-10T04:12:56;12.30;99.90
52743;DHT22;55583;53.012;6.556;2023-05-10T04:15:22;12.30;99.90
52743;DHT22;55583;53.012;6.556;2023-05-10T04:17:48;12.50;99.90
52743;DHT22;55583;53.012;6.556;2023-05-10T04:20:14;12.30;99.90
52743;DHT22;55583;53.012;6.556;2023-05-10T04:22:40;12.30;99.90
52743;DHT22;55583;53.012;6.556;2023-05-10T04:25:06;12.30;99.90
52743;DHT22;55583;53.012;6.556;2023-05-10T04:27:32;12.30;99.90
52743;DHT22;55583;53.012;6.556;2023-05-10T04:29:58;12.40;99.90
52743;DHT22;55583;53.012;6.556;2023-05-10T04:32:26;12.40;99.90
52743;DHT22;55583;53.012;6.556;2023-05-10T04:34:52;12.30;99.90
52743;DHT22;55583;53.012;6.556;2023-05-10T04:37:18;12.30;99.90
52743;DHT22;55583;53.012;6.556;2023-05-10T04:39:44;12.30;99.90
52743;DHT22;55583;53.012;6.556;2023-05-10T04:42:09;12.30;99.90
52743;DHT22;55583;53.012;6.556;2023-05-10T04:44:35;12.30;99.90
52743;DHT22;55583;53.012;6.556;2023-05-10T04:47:01;12.40;99.90
52743;DHT22;55583;53.012;6.556;2023-05-10T04:49:28;12.30;99.90
52743;DHT22;55583;53.012;6.556;2023-05-10T04:51:53;12.30;99.90
52743;DHT22;55583;53.012;6.556;2023-05-10T04:54:19;12.50;99.90
52743;DHT22;55583;53.012;6.556;2023-05-10T04:56:45;12.30;99.90
52743;DHT22;55583;53.012;6.556;2023-05-10T04:59:10;12.50;99.90
52743;DHT22;55583;53.012;6.556;2023-05-10T05:01:36;12.30;99.90
52743;DHT22;55583;53.012;6.556;2023-05-10T05:04:02;12.40;99.90
52743;DHT22;55583;53.012;6.556;2023-05-10T05:06:27;12.30;99.90
52743;DHT22;55583;53.012;6.556;2023-05-10T05:08:53;12.30;99.90
52743;DHT22;55583;53.012;6.556;2023-05-10T05:11:18;12.30;99.90
52743;DHT22;55583;53.012;6.556;2023-05-10T05:13:44;12.40;99.90
52743;DHT22;55583;53.012;6.556;2023-05-10T05:16:10;12.30;99.90
52743;DHT22;55583;53.012;6.556;2023-05-10T05:18:39;12.30;99.90
52743;DHT22;55583;53.012;6.556;2023-05-10T05:21:16;12.30;99.90
52743;DHT22;55583;53.012;6.556;2023-05-10T05:23:43;12.20;99.90
52743;DHT22;55583;53.012;6.556;2023-05-10T05:26:09;12.30;99.90
52743;DHT22;55583;53.012;6.556;2023-05-10T05:28:35;12.20;99.90
52743;DHT22;55583;53.012;6.556;2023-05-10T05:31:03;12.20;99.90
52743;DHT22;55583;53.012;6.556;2023-05-10T05:33:29;12.20;99.90
52743;DHT22;55583;53.012;6.556;2023-05-10T05:35:55;12.20;99.90
52743;DHT22;55583;53.012;6.556;2023-05-10T05:38:20;12.20;99.90
52743;DHT22;55583;53.012;6.556;2023-05-10T05:40:46;12.50;99.90
52743;DHT22;55583;53.012;6.556;2023-05-10T05:43:12;12.30;99.90
52743;DHT22;55583;53.012;6.556;2023-05-10T05:45:37;12.20;99.90
52743;DHT22;55583;53.012;6.556;2023-05-10T05:48:03;12.20;99.90
52743;DHT22;55583;53.012;6.556;2023-05-10T05:50:29;12.20;99.90
52743;DHT22;55583;53.012;6.556;2023-05-10T05:52:55;12.20;99.90
52743;DHT22;55583;53.012;6.556;2023-05-10T05:55:21;12.20;99.90
52743;DHT22;55583;53.012;6.556;2023-05-10T05:57:47;12.20;99.90
52743;DHT22;55583;53.012;6.556;2023-05-10T06:00:13;12.20;99.90
52743;DHT22;55583;53.012;6.556;2023-05-10T06:02:39;12.20;99.90
52743;DHT22;55583;53.012;6.556;2023-05-10T06:05:05;12.30;99.90
52743;DHT22;55583;53.012;6.556;2023-05-10T06:07:30;12.20;99.90
52743;DHT22;55583;53.012;6.556;2023-05-10T06:09:56;12.40;99.90
52743;DHT22;55583;53.012;6.556;2023-05-10T06:12:22;12.20;99.90
52743;DHT22;55583;53.012;6.556;2023-05-10T06:14:47;12.20;99.90
52743;DHT22;55583;53.012;6.556;2023-05-10T06:17:13;12.20;99.90
52743;DHT22;55583;53.012;6.556;2023-05-10T06:19:38;12.20;99.90
52743;DHT22;55583;53.012;6.556;2023-05-10T06:22:04;12.20;99.90
52743;DHT22;55583;53.012;6.556;2023-05-10T06:24:29;12.40;99.90
52743;DHT22;55583;53.012;6.556;2023-05-10T06:26:55;12.60;99.90
52743;DHT22;55583;53.012;6.556;2023-05-10T06:29:21;12.40;99.90
52743;DHT22;55583;53.012;6.556;2023-05-10T06:31:46;12.30;99.90
52743;DHT22;55583;53.012;6.556;2023-05-10T06:34:13;12.50;99.90
52743;DHT22;55583;53.012;6.556;2023-05-10T06:36:38;12.30;99.90
52743;DHT22;55583;53.012;6.556;2023-05-10T06:39:04;12.40;99.90
52743;DHT22;55583;53.012;6.556;2023-05-10T06:41:30;12.70;99.90
52743;DHT22;55583;53.012;6.556;2023-05-10T06:43:56;12.40;99.90
52743;DHT22;55583;53.012;6.556;2023-05-10T06:46:22;12.40;99.90
52743;DHT22;55583;53.012;6.556;2023-05-10T06:48:47;12.70;99.90
52743;DHT22;55583;53.012;6.556;2023-05-10T06:51:13;12.40;99.90
52743;DHT22;55583;53.012;6.556;2023-05-10T06:53:38;12.40;99.90
52743;DHT22;55583;53.012;6.556;2023-05-10T06:56:04;12.40;99.90
52743;DHT22;55583;53.012;6.556;2023-05-10T06:58:30;12.40;99.90
52743;DHT22;55583;53.012;6.556;2023-05-10T07:01:04;12.70;99.90
52743;DHT22;55583;53.012;6.556;2023-05-10T07:03:31;12.40;99.90
52743;DHT22;55583;53.012;6.556;2023-05-10T07:06:03;12.60;99.90
52743;DHT22;55583;53.012;6.556;2023-05-10T07:08:33;12.40;99.90
52743;DHT22;55583;53.012;6.556;2023-05-10T07:11:05;12.60;99.90
52743;DHT22;55583;53.012;6.556;2023-05-10T07:13:32;12.40;99.90
52743;DHT22;55583;53.012;6.556;2023-05-10T07:15:59;12.40;99.90
52743;DHT22;55583;53.012;6.556;2023-05-10T07:18:25;13.00;99.90
52743;DHT22;55583;53.012;6.556;2023-05-10T07:20:51;12.40;99.90
52743;DHT22;55583;53.012;6.556;2023-05-10T07:23:17;12.50;99.90
52743;DHT22;55583;53.012;6.556;2023-05-10T07:25:48;12.50;99.90
52743;DHT22;55583;53.012;6.556;2023-05-10T07:28:15;12.60;99.90
52743;DHT22;55583;53.012;6.556;2023-05-10T07:30:41;12.60;99.90
52743;DHT22;55583;53.012;6.556;2023-05-10T07:33:08;12.60;99.90
52743;DHT22;55583;53.012;6.556;2023-05-10T07:35:35;12.70;99.90
52743;DHT22;55583;53.012;6.556;2023-05-10T07:38:01;12.80;99.90
52743;DHT22;55583;53.012;6.556;2023-05-10T07:40:27;12.80;99.90
52743;DHT22;55583;53.012;6.556;2023-05-10T07:42:53;12.90;99.90
52743;DHT22;55583;53.012;6.556;2023-05-10T07:45:18;12.90;99.90
52743;DHT22;55583;53.012;6.556;2023-05-10T07:47:44;13.00;99.90
52743;DHT22;55583;53.012;6.556;2023-05-10T07:50:10;13.00;99.90
52743;DHT22;55583;53.012;6.556;2023-05-10T07:52:35;12.90;99.90
52743;DHT22;55583;53.012;6.556;2023-05-10T07:55:01;12.90;99.90
52743;DHT22;55583;53.012;6.556;2023-05-10T07:57:26;13.40;99.90
52743;DHT22;55583;53.012;6.556;2023-05-10T07:59:52;14.10;99.90
52743;DHT22;55583;53.012;6.556;2023-05-10T08:02:18;13.10;99.90
52743;DHT22;55583;53.012;6.556;2023-05-10T08:04:43;13.10;99.90
52743;DHT22;55583;53.012;6.556;2023-05-10T08:07:09;13.10;99.90
52743;DHT22;55583;53.012;6.556;2023-05-10T08:09:36;13.20;99.90
52743;DHT22;55583;53.012;6.556;2023-05-10T08:12:01;13.30;99.90
52743;DHT22;55583;53.012;6.556;2023-05-10T08:14:28;13.30;99.90
52743;DHT22;55583;53.012;6.556;2023-05-10T08:16:54;13.50;99.90
52743;DHT22;55583;53.012;6.556;2023-05-10T08:19:20;13.30;99.90
52743;DHT22;55583;53.012;6.556;2023-05-10T08:21:47;13.20;99.90
52743;DHT22;55583;53.012;6.556;2023-05-10T08:24:12;13.60;99.90
52743;DHT22;55583;53.012;6.556;2023-05-10T08:26:41;13.20;99.90
52743;DHT22;55583;53.012;6.556;2023-05-10T08:29:06;13.30;99.90
52743;DHT22;55583;53.012;6.556;2023-05-10T08:31:32;13.30;99.90
52743;DHT22;55583;53.012;6.556;2023-05-10T08:33:58;13.30;99.90
52743;DHT22;55583;53.012;6.556;2023-05-10T08:36:23;13.40;99.90
52743;DHT22;55583;53.012;6.556;2023-05-10T08:38:53;13.40;99.90
52743;DHT22;55583;53.012;6.556;2023-05-10T08:41:23;13.40;99.90
52743;DHT22;55583;53.012;6.556;2023-05-10T08:43:53;13.70;99.90
52743;DHT22;55583;53.012;6.556;2023-05-10T08:46:20;13.40;99.90
52743;DHT22;55583;53.012;6.556;2023-05-10T08:48:49;13.40;99.90
52743;DHT22;55583;53.012;6.556;2023-05-10T08:51:19;13.40;99.90
52743;DHT22;55583;53.012;6.556;2023-05-10T08:53:46;13.70;99.90
52743;DHT22;55583;53.012;6.556;2023-05-10T08:56:12;13.70;99.90
52743;DHT22;55583;53.012;6.556;2023-05-10T08:58:38;13.80;99.90
52743;DHT22;55583;53.012;6.556;2023-05-10T09:01:05;14.00;99.90
52743;DHT22;55583;53.012;6.556;2023-05-10T09:03:31;14.10;99.90
52743;DHT22;55583;53.012;6.556;2023-05-10T09:05:57;14.10;99.90
52743;DHT22;55583;53.012;6.556;2023-05-10T09:08:24;14.40;99.90
52743;DHT22;55583;53.012;6.556;2023-05-10T09:10:56;14.40;99.90
52743;DHT22;55583;53.012;6.556;2023-05-10T09:13:23;14.00;99.90
52743;DHT22;55583;53.012;6.556;2023-05-10T09:15:49;13.90;99.90
52743;DHT22;55583;53.012;6.556;2023-05-10T09:18:15;13.80;99.90
52743;DHT22;55583;53.012;6.556;2023-05-10T09:20:41;13.70;99.90
52743;DHT22;55583;53.012;6.556;2023-05-10T09:23:06;13.70;99.90
52743;DHT22;55583;53.012;6.556;2023-05-10T09:25:32;13.80;99.90
52743;DHT22;55583;53.012;6.556;2023-05-10T09:28:01;13.70;99.90
52743;DHT22;55583;53.012;6.556;2023-05-10T09:30:29;13.70;99.90
52743;DHT22;55583;53.012;6.556;2023-05-10T09:32:56;13.70;99.90
52743;DHT22;55583;53.012;6.556;2023-05-10T09:35:24;13.70;99.90
52743;DHT22;55583;53.012;6.556;2023-05-10T09:37:55;13.80;99.90
52743;DHT22;55583;53.012;6.556;2023-05-10T09:40:23;13.90;99.90
52743;DHT22;55583;53.012;6.556;2023-05-10T09:45:17;14.50;99.90
52743;DHT22;55583;53.012;6.556;2023-05-10T09:47:43;14.70;99.90
52743;DHT22;55583;53.012;6.556;2023-05-10T09:50:09;14.80;99.90
52743;DHT22;55583;53.012;6.556;2023-05-10T09:52:55;14.70;99.90
52743;DHT22;55583;53.012;6.556;2023-05-10T09:55:45;14.60;99.90
52743;DHT22;55583;53.012;6.556;2023-05-10T09:58:14;14.40;99.90
52743;DHT22;55583;53.012;6.556;2023-05-10T10:00:42;14.30;99.90
52743;DHT22;55583;53.012;6.556;2023-05-10T10:03:19;14.20;99.90
52743;DHT22;55583;53.012;6.556;2023-05-10T10:05:46;14.20;99.90
52743;DHT22;55583;53.012;6.556;2023-05-10T10:08:13;14.20;99.90
52743;DHT22;55583;53.012;6.556;2023-05-10T10:10:39;14.20;99.90
52743;DHT22;55583;53.012;6.556;2023-05-10T10:13:11;14.20;99.90
52743;DHT22;55583;53.012;6.556;2023-05-10T10:15:37;14.20;99.90
52743;DHT22;55583;53.012;6.556;2023-05-10T10:18:03;14.30;99.90
52743;DHT22;55583;53.012;6.556;2023-05-10T10:20:30;14.40;99.90
52743;DHT22;55583;53.012;6.556;2023-05-10T10:22:56;14.50;99.90
52743;DHT22;55583;53.012;6.556;2023-05-10T10:25:21;14.60;99.90
52743;DHT22;55583;53.012;6.556;2023-05-10T10:27:57;14.70;99.90
52743;DHT22;55583;53.012;6.556;2023-05-10T10:30:37;14.80;99.90
52743;DHT22;55583;53.012;6.556;2023-05-10T10:36:08;14.80;99.90
52743;DHT22;55583;53.012;6.556;2023-05-10T10:38:57;14.90;99.90
52743;DHT22;55583;53.012;6.556;2023-05-10T10:41:33;15.20;99.90
52743;DHT22;55583;53.012;6.556;2023-05-10T10:44:36;15.20;99.90
52743;DHT22;55583;53.012;6.556;2023-05-10T10:47:21;15.30;99.90
52743;DHT22;55583;53.012;6.556;2023-05-10T10:50:06;15.50;99.90
52743;DHT22;55583;53.012;6.556;2023-05-10T10:52:34;15.40;99.90
52743;DHT22;55583;53.012;6.556;2023-05-10T10:55:11;15.70;99.90
52743;DHT22;55583;53.012;6.556;2023-05-10T11:00:19;15.50;99.90
52743;DHT22;55583;53.012;6.556;2023-05-10T11:02:47;15.40;99.90
52743;DHT22;55583;53.012;6.556;2023-05-10T11:05:40;15.40;99.90
52743;DHT22;55583;53.012;6.556;2023-05-10T11:13:44;15.50;99.90
52743;DHT22;55583;53.012;6.556;2023-05-10T11:16:15;15.60;99.90
52743;DHT22;55583;53.012;6.556;2023-05-10T11:18:51;15.70;99.90
52743;DHT22;55583;53.012;6.556;2023-05-10T11:21:17;15.80;99.90
52743;DHT22;55583;53.012;6.556;2023-05-10T11:26:09;16.10;99.90
52743;DHT22;55583;53.012;6.556;2023-05-10T11:28:46;16.20;99.90
52743;DHT22;55583;53.012;6.556;2023-05-10T11:31:16;16.40;99.90
52743;DHT22;55583;53.012;6.556;2023-05-10T11:33:52;16.40;99.90
52743;DHT22;55583;53.012;6.556;2023-05-10T11:36:40;16.40;99.90
52743;DHT22;55583;53.012;6.556;2023-05-10T11:39:05;16.40;99.90
52743;DHT22;55583;53.012;6.556;2023-05-10T11:41:31;16.30;99.90
52743;DHT22;55583;53.012;6.556;2023-05-10T11:43:58;16.60;99.90
52743;DHT22;55583;53.012;6.556;2023-05-10T11:46:26;16.30;99.90
52743;DHT22;55583;53.012;6.556;2023-05-10T11:48:58;16.20;99.90
52743;DHT22;55583;53.012;6.556;2023-05-10T11:51:26;16.00;99.90
52743;DHT22;55583;53.012;6.556;2023-05-10T11:53:53;15.90;99.90
52743;DHT22;55583;53.012;6.556;2023-05-10T11:56:20;15.70;99.90
52743;DHT22;55583;53.012;6.556;2023-05-10T11:58:55;15.60;99.90
52743;DHT22;55583;53.012;6.556;2023-05-10T12:01:22;15.50;99.90
52743;DHT22;55583;53.012;6.556;2023-05-10T12:03:49;15.40;99.90
52743;DHT22;55583;53.012;6.556;2023-05-10T12:06:15;15.30;99.90
52743;DHT22;55583;53.012;6.556;2023-05-10T12:08:44;15.30;99.90
52743;DHT22;55583;53.012;6.556;2023-05-10T12:11:12;15.30;99.90
52743;DHT22;55583;53.012;6.556;2023-05-10T12:13:43;15.50;99.90
52743;DHT22;55583;53.012;6.556;2023-05-10T12:16:19;15.50;99.90
52743;DHT22;55583;53.012;6.556;2023-05-10T12:18:53;15.60;99.90
52743;DHT22;55583;53.012;6.556;2023-05-10T12:21:20;15.60;99.90
52743;DHT22;55583;53.012;6.556;2023-05-10T12:23:51;15.60;99.90
52743;DHT22;55583;53.012;6.556;2023-05-10T12:26:17;15.60;99.90
52743;DHT22;55583;53.012;6.556;2023-05-10T12:28:43;15.60;99.90
52743;DHT22;55583;53.012;6.556;2023-05-10T12:31:09;15.60;99.90
52743;DHT22;55583;53.012;6.556;2023-05-10T12:33:42;15.60;99.90
52743;DHT22;55583;53.012;6.556;2023-05-10T12:36:09;15.50;99.90
52743;DHT22;55583;53.012;6.556;2023-05-10T12:38:40;15.50;99.90
52743;DHT22;55583;53.012;6.556;2023-05-10T12:41:09;15.50;99.90
52743;DHT22;55583;53.012;6.556;2023-05-10T12:43:36;15.50;99.90
52743;DHT22;55583;53.012;6.556;2023-05-10T12:46:12;15.60;99.90
52743;DHT22;55583;53.012;6.556;2023-05-10T12:48:39;15.60;99.90
52743;DHT22;55583;53.012;6.556;2023-05-10T12:51:06;15.70;99.90
52743;DHT22;55583;53.012;6.556;2023-05-10T12:53:35;15.70;99.90
52743;DHT22;55583;53.012;6.556;2023-05-10T12:56:00;15.80;99.90
52743;DHT22;55583;53.012;6.556;2023-05-10T12:58:26;15.90;99.90
52743;DHT22;55583;53.012;6.556;2023-05-10T13:00:52;15.90;99.90
52743;DHT22;55583;53.012;6.556;2023-05-10T13:03:18;15.90;99.90
52743;DHT22;55583;53.012;6.556;2023-05-10T13:05:44;15.80;99.90
52743;DHT22;55583;53.012;6.556;2023-05-10T13:08:09;15.60;99.90
52743;DHT22;55583;53.012;6.556;2023-05-10T13:10:35;15.50;99.90
52743;DHT22;55583;53.012;6.556;2023-05-10T13:13:01;15.40;99.90
52743;DHT22;55583;53.012;6.556;2023-05-10T13:15:27;15.40;99.90
52743;DHT22;55583;53.012;6.556;2023-05-10T13:17:53;15.40;99.90
52743;DHT22;55583;53.012;6.556;2023-05-10T13:20:19;15.30;99.90
52743;DHT22;55583;53.012;6.556;2023-05-10T13:22:45;15.20;99.90
52743;DHT22;55583;53.012;6.556;2023-05-10T13:25:11;15.20;99.90
52743;DHT22;55583;53.012;6.556;2023-05-10T13:27:38;15.20;99.90
52743;DHT22;55583;53.012;6.556;2023-05-10T13:30:04;15.50;99.90
52743;DHT22;55583;53.012;6.556;2023-05-10T13:32:30;15.20;99.90
52743;DHT22;55583;53.012;6.556;2023-05-10T13:34:56;15.30;99.90
52743;DHT22;55583;53.012;6.556;2023-05-10T13:37:22;15.40;99.90
52743;DHT22;55583;53.012;6.556;2023-05-10T13:39:48;15.50;99.90
52743;DHT22;55583;53.012;6.556;2023-05-10T13:42:14;16.00;99.90
52743;DHT22;55583;53.012;6.556;2023-05-10T13:44:39;15.90;99.90
52743;DHT22;55583;53.012;6.556;2023-05-10T13:47:05;16.10;99.90
52743;DHT22;55583;53.012;6.556;2023-05-10T13:49:34;16.40;99.90
52743;DHT22;55583;53.012;6.556;2023-05-10T13:52:00;16.50;99.90
52743;DHT22;55583;53.012;6.556;2023-05-10T13:54:35;16.60;99.90
52743;DHT22;55583;53.012;6.556;2023-05-10T13:57:01;16.70;99.90
52743;DHT22;55583;53.012;6.556;2023-05-10T13:59:27;16.90;99.90
52743;DHT22;55583;53.012;6.556;2023-05-10T14:01:52;16.90;99.90
52743;DHT22;55583;53.012;6.556;2023-05-10T14:04:18;16.90;99.90
52743;DHT22;55583;53.012;6.556;2023-05-10T14:06:44;16.90;99.90
52743;DHT22;55583;53.012;6.556;2023-05-10T14:09:09;16.90;99.90
52743;DHT22;55583;53.012;6.556;2023-05-10T14:11:35;16.90;99.90
52743;DHT22;55583;53.012;6.556;2023-05-10T14:14:01;16.90;99.90
52743;DHT22;55583;53.012;6.556;2023-05-10T14:16:26;16.90;99.90
52743;DHT22;55583;53.012;6.556;2023-05-10T14:18:52;16.70;99.90
52743;DHT22;55583;53.012;6.556;2023-05-10T14:21:18;16.60;99.90
52743;DHT22;55583;53.012;6.556;2023-05-10T14:23:44;16.50;99.90
52743;DHT22;55583;53.012;6.556;2023-05-10T14:26:09;16.50;99.90
52743;DHT22;55583;53.012;6.556;2023-05-10T14:28:35;16.40;99.90
52743;DHT22;55583;53.012;6.556;2023-05-10T14:31:01;16.40;99.90
52743;DHT22;55583;53.012;6.556;2023-05-10T14:33:26;16.40;99.90
52743;DHT22;55583;53.012;6.556;2023-05-10T14:35:53;16.40;99.90
52743;DHT22;55583;53.012;6.556;2023-05-10T14:38:22;16.30;99.90
52743;DHT22;55583;53.012;6.556;2023-05-10T14:40:47;16.30;99.90
52743;DHT22;55583;53.012;6.556;2023-05-10T14:43:13;16.30;99.90
52743;DHT22;55583;53.012;6.556;2023-05-10T14:45:39;16.30;99.90
52743;DHT22;55583;53.012;6.556;2023-05-10T14:48:04;16.30;99.90
52743;DHT22;55583;53.012;6.556;2023-05-10T14:50:31;16.40;99.90
52743;DHT22;55583;53.012;6.556;2023-05-10T14:52:57;16.90;99.90
52743;DHT22;55583;53.012;6.556;2023-05-10T14:55:24;16.60;99.90
52743;DHT22;55583;53.012;6.556;2023-05-10T14:57:50;16.60;99.90
52743;DHT22;55583;53.012;6.556;2023-05-10T15:00:16;16.60;99.90
52743;DHT22;55583;53.012;6.556;2023-05-10T15:02:42;16.70;99.90
52743;DHT22;55583;53.012;6.556;2023-05-10T15:05:08;16.70;99.90
52743;DHT22;55583;53.012;6.556;2023-05-10T15:07:33;16.80;99.90
52743;DHT22;55583;53.012;6.556;2023-05-10T15:10:03;16.90;99.90
52743;DHT22;55583;53.012;6.556;2023-05-10T15:12:29;17.00;99.90
52743;DHT22;55583;53.012;6.556;2023-05-10T15:14:55;17.00;99.90
52743;DHT22;55583;53.012;6.556;2023-05-10T15:17:20;17.00;99.90
52743;DHT22;55583;53.012;6.556;2023-05-10T15:19:46;17.10;99.90
52743;DHT22;55583;53.012;6.556;2023-05-10T15:22:12;17.10;99.90
52743;DHT22;55583;53.012;6.556;2023-05-10T15:24:37;17.20;99.90
52743;DHT22;55583;53.012;6.556;2023-05-10T15:27:03;17.30;99.90
52743;DHT22;55583;53.012;6.556;2023-05-10T15:29:29;17.20;99.90
52743;DHT22;55583;53.012;6.556;2023-05-10T15:31:55;17.30;99.90
52743;DHT22;55583;53.012;6.556;2023-05-10T15:34:21;17.30;99.90
52743;DHT22;55583;53.012;6.556;2023-05-10T15:36:46;17.30;99.90
52743;DHT22;55583;53.012;6.556;2023-05-10T15:39:12;17.30;99.90
52743;DHT22;55583;53.012;6.556;2023-05-10T15:41:38;17.40;99.90
52743;DHT22;55583;53.012;6.556;2023-05-10T15:44:03;17.40;99.90
52743;DHT22;55583;53.012;6.556;2023-05-10T15:46:29;17.30;99.90
52743;DHT22;55583;53.012;6.556;2023-05-10T15:48:57;17.40;99.90
52743;DHT22;55583;53.012;6.556;2023-05-10T15:51:22;17.40;99.90
52743;DHT22;55583;53.012;6.556;2023-05-10T15:53:48;17.40;99.90
52743;DHT22;55583;53.012;6.556;2023-05-10T15:56:14;17.20;99.90
52743;DHT22;55583;53.012;6.556;2023-05-10T15:58:40;17.30;99.90
52743;DHT22;55583;53.012;6.556;2023-05-10T16:01:06;17.30;99.90
52743;DHT22;55583;53.012;6.556;2023-05-10T16:03:33;17.20;99.90